sensor_id;sensor_type;location;lat;lon;timestamp;temperature;humidity
75719;DHT22;64340;48.534;-3.036;2023-03-23T00:00:59;18.10;63.40
75719;DHT22;64340;48.534;-3.036;2023-03-23T00:03:26;18.10;63.50
75719;DHT22;64340;48.534;-3.036;2023-03-23T00:05:54;18.10;63.50
75719;DHT22;64340;48.534;-3.036;2023-03-23T00:08:25;18.10;63.40
75719;DHT22;64340;48.534;-3.036;2023-03-23T00:10:52;18.00;63.50
75719;DHT22;64340;48.534;-3.036;2023-03-23T00:13:25;18.00;63.40
75719;DHT22;64340;48.534;-3.036;2023-03-23T00:15:52;18.00;63.40
75719;DHT22;64340;48.534;-3.036;2023-03-23T00:18:19;18.00;63.40
75719;DHT22;64340;48.534;-3.036;2023-03-23T00:20:54;18.00;63.50
75719;DHT22;64340;48.534;-3.036;2023-03-23T00:23:25;18.00;63.40
75719;DHT22;64340;48.534;-3.036;2023-03-23T00:25:56;18.00;63.50
75719;DHT22;64340;48.534;-3.036;2023-03-23T00:28:23;18.00;63.40
75719;DHT22;64340;48.534;-3.036;2023-03-23T00:30:58;18.00;63.50
75719;DHT22;64340;48.534;-3.036;2023-03-23T00:33:27;18.00;63.50
75719;DHT22;64340;48.534;-3.036;2023-03-23T00:35:53;17.90;63.50
75719;DHT22;64340;48.534;-3.036;2023-03-23T00:38:21;17.90;63.40
75719;DHT22;64340;48.534;-3.036;2023-03-23T00:40:48;17.90;63.40
75719;DHT22;64340;48.534;-3.036;2023-03-23T00:43:15;17.90;63.40
75719;DHT22;64340;48.534;-3.036;2023-03-23T00:45:43;17.80;63.40
75719;DHT22;64340;48.534;-3.036;2023-03-23T00:48:22;17.80;63.50
75719;DHT22;64340;48.534;-3.036;2023-03-23T00:50:49;17.80;63.50
75719;DHT22;64340;48.534;-3.036;2023-03-23T00:53:16;17.80;63.50
75719;DHT22;64340;48.534;-3.036;2023-03-23T00:55:42;17.80;63.50
75719;DHT22;64340;48.534;-3.036;2023-03-23T00:58:09;17.80;63.40
75719;DHT22;64340;48.534;-3.036;2023-03-23T01:00:35;17.80;63.40
75719;DHT22;64340;48.534;-3.036;2023-03-23T01:03:01;17.80;63.40
75719;DHT22;64340;48.534;-3.036;2023-03-23T01:05:27;17.80;63.50
75719;DHT22;64340;48.534;-3.036;2023-03-23T01:08:01;17.80;63.50
75719;DHT22;64340;48.534;-3.036;2023-03-23T01:10:27;17.80;63.50
75719;DHT22;64340;48.534;-3.036;2023-03-23T01:12:54;17.80;63.40
75719;DHT22;64340;48.534;-3.036;2023-03-23T01:15:20;17.80;63.50
75719;DHT22;64340;48.534;-3.036;2023-03-23T01:17:47;17.70;63.30
75719;DHT22;64340;48.534;-3.036;2023-03-23T01:20:14;17.70;63.40
75719;DHT22;64340;48.534;-3.036;2023-03-23T01:22:42;17.70;63.40
75719;DHT22;64340;48.534;-3.036;2023-03-23T01:25:09;17.70;63.50
75719;DHT22;64340;48.534;-3.036;2023-03-23T01:27:35;17.60;63.40
75719;DHT22;64340;48.534;-3.036;2023-03-23T01:30:02;17.60;63.40
75719;DHT22;64340;48.534;-3.036;2023-03-23T01:32:28;17.60;63.40
75719;DHT22;64340;48.534;-3.036;2023-03-23T01:34:54;17.60;63.40
75719;DHT22;64340;48.534;-3.036;2023-03-23T01:37:21;17.60;63.40
75719;DHT22;64340;48.534;-3.036;2023-03-23T01:39:55;17.60;63.50
75719;DHT22;64340;48.534;-3.036;2023-03-23T01:42:32;17.60;63.40
75719;DHT22;64340;48.534;-3.036;2023-03-23T01:45:21;17.50;63.50
75719;DHT22;64340;48.534;-3.036;2023-03-23T01:48:09;17.50;63.50
75719;DHT22;64340;48.534;-3.036;2023-03-23T01:51:12;17.50;63.50
75719;DHT22;64340;48.534;-3.036;2023-03-23T01:53:40;17.50;63.50
75719;DHT22;64340;48.534;-3.036;2023-03-23T01:56:09;17.50;63.50
75719;DHT22;64340;48.534;-3.036;2023-03-23T01:58:38;17.50;63.40
75719;DHT22;64340;48.534;-3.036;2023-03-23T02:01:08;17.50;63.50
75719;DHT22;64340;48.534;-3.036;2023-03-23T02:03:38;17.50;63.60
75719;DHT22;64340;48.534;-3.036;2023-03-23T02:06:05;17.50;63.50
75719;DHT22;64340;48.534;-3.036;2023-03-23T02:08:32;17.50;63.50
75719;DHT22;64340;48.534;-3.036;2023-03-23T02:10:59;17.50;63.50
75719;DHT22;64340;48.534;-3.036;2023-03-23T02:13:26;17.50;63.50
75719;DHT22;64340;48.534;-3.036;2023-03-23T02:16:03;17.50;63.50
75719;DHT22;64340;48.534;-3.036;2023-03-23T02:24:04;17.50;63.50
75719;DHT22;64340;48.534;-3.036;2023-03-23T02:26:53;17.40;63.50
75719;DHT22;64340;48.534;-3.036;2023-03-23T02:29:29;17.40;63.40
75719;DHT22;64340;48.534;-3.036;2023-03-23T02:35:15;17.40;63.70
75719;DHT22;64340;48.534;-3.036;2023-03-23T02:37:52;17.40;63.70
75719;DHT22;64340;48.534;-3.036;2023-03-23T02:40:25;17.40;63.60
75719;DHT22;64340;48.534;-3.036;2023-03-23T02:42:55;17.40;63.60
75719;DHT22;64340;48.534;-3.036;2023-03-23T02:45:22;17.40;63.70
75719;DHT22;64340;48.534;-3.036;2023-03-23T02:47:52;17.40;63.50
75719;DHT22;64340;48.534;-3.036;2023-03-23T02:50:21;17.30;63.50
75719;DHT22;64340;48.534;-3.036;2023-03-23T02:52:48;17.30;63.60
75719;DHT22;64340;48.534;-3.036;2023-03-23T02:55:16;17.30;63.60
75719;DHT22;64340;48.534;-3.036;2023-03-23T02:57:44;17.30;63.70
75719;DHT22;64340;48.534;-3.036;2023-03-23T03:00:14;17.30;63.50
75719;DHT22;64340;48.534;-3.036;2023-03-23T03:02:43;17.20;63.60
75719;DHT22;64340;48.534;-3.036;2023-03-23T03:05:35;17.20;63.60
75719;DHT22;64340;48.534;-3.036;2023-03-23T03:08:06;17.20;63.70
75719;DHT22;64340;48.534;-3.036;2023-03-23T03:19:14;17.20;63.60
75719;DHT22;64340;48.534;-3.036;2023-03-23T03:21:45;17.20;63.70
75719;DHT22;64340;48.534;-3.036;2023-03-23T03:24:15;17.20;63.70
75719;DHT22;64340;48.534;-3.036;2023-03-23T03:26:45;17.20;63.60
75719;DHT22;64340;48.534;-3.036;2023-03-23T03:29:18;17.20;63.60
75719;DHT22;64340;48.534;-3.036;2023-03-23T03:31:47;17.20;63.50
75719;DHT22;64340;48.534;-3.036;2023-03-23T03:34:15;17.20;63.60
75719;DHT22;64340;48.534;-3.036;2023-03-23T03:36:44;17.20;63.60
75719;DHT22;64340;48.534;-3.036;2023-03-23T03:39:12;17.20;63.60
75719;DHT22;64340;48.534;-3.036;2023-03-23T03:41:40;17.20;63.60
75719;DHT22;64340;48.534;-3.036;2023-03-23T03:44:07;17.20;63.60
75719;DHT22;64340;48.534;-3.036;2023-03-23T03:46:34;17.20;63.60
75719;DHT22;64340;48.534;-3.036;2023-03-23T03:49:01;17.10;63.60
75719;DHT22;64340;48.534;-3.036;2023-03-23T03:51:28;17.10;63.60
75719;DHT22;64340;48.534;-3.036;2023-03-23T03:53:55;17.10;63.50
75719;DHT22;64340;48.534;-3.036;2023-03-23T03:56:22;17.10;63.60
75719;DHT22;64340;48.534;-3.036;2023-03-23T03:58:49;17.00;63.60
75719;DHT22;64340;48.534;-3.036;2023-03-23T04:01:16;17.00;63.60
75719;DHT22;64340;48.534;-3.036;2023-03-23T04:03:44;17.00;63.60
75719;DHT22;64340;48.534;-3.036;2023-03-23T04:06:10;17.00;63.70
75719;DHT22;64340;48.534;-3.036;2023-03-23T04:08:38;17.00;63.70
75719;DHT22;64340;48.534;-3.036;2023-03-23T04:11:04;17.00;63.60
75719;DHT22;64340;48.534;-3.036;2023-03-23T04:13:31;17.00;63.70
75719;DHT22;64340;48.534;-3.036;2023-03-23T04:15:57;17.00;63.50
75719;DHT22;64340;48.534;-3.036;2023-03-23T04:18:23;17.00;63.70
75719;DHT22;64340;48.534;-3.036;2023-03-23T04:20:49;17.00;63.70
75719;DHT22;64340;48.534;-3.036;2023-03-23T04:23:17;17.00;63.50
75719;DHT22;64340;48.534;-3.036;2023-03-23T04:25:48;17.00;63.60
75719;DHT22;64340;48.534;-3.036;2023-03-23T04:28:15;17.00;63.70
75719;DHT22;64340;48.534;-3.036;2023-03-23T04:30:45;17.00;63.70
75719;DHT22;64340;48.534;-3.036;2023-03-23T04:33:11;17.00;63.70
75719;DHT22;64340;48.534;-3.036;2023-03-23T04:35:40;17.00;63.70
75719;DHT22;64340;48.534;-3.036;2023-03-23T04:38:06;17.00;63.70
75719;DHT22;64340;48.534;-3.036;2023-03-23T04:40:36;17.00;63.70
75719;DHT22;64340;48.534;-3.036;2023-03-23T04:43:02;17.00;63.60
75719;DHT22;64340;48.534;-3.036;2023-03-23T04:45:32;17.00;63.70
75719;DHT22;64340;48.534;-3.036;2023-03-23T04:47:58;17.00;63.70
75719;DHT22;64340;48.534;-3.036;2023-03-23T04:50:31;16.90;63.70
75719;DHT22;64340;48.534;-3.036;2023-03-23T04:52:59;16.90;63.60
75719;DHT22;64340;48.534;-3.036;2023-03-23T04:55:33;16.90;63.70
75719;DHT22;64340;48.534;-3.036;2023-03-23T04:58:03;16.90;63.70
75719;DHT22;64340;48.534;-3.036;2023-03-23T05:00:29;16.90;63.60
75719;DHT22;64340;48.534;-3.036;2023-03-23T05:02:54;16.90;63.60
75719;DHT22;64340;48.534;-3.036;2023-03-23T05:05:22;16.90;63.70
75719;DHT22;64340;48.534;-3.036;2023-03-23T05:07:48;16.90;63.90
75719;DHT22;64340;48.534;-3.036;2023-03-23T05:10:15;16.90;63.40
75719;DHT22;64340;48.534;-3.036;2023-03-23T05:12:41;16.90;63.40
75719;DHT22;64340;48.534;-3.036;2023-03-23T05:15:08;16.90;63.60
75719;DHT22;64340;48.534;-3.036;2023-03-23T05:17:35;16.90;63.60
75719;DHT22;64340;48.534;-3.036;2023-03-23T05:20:01;16.90;63.70
75719;DHT22;64340;48.534;-3.036;2023-03-23T05:22:29;16.90;63.60
75719;DHT22;64340;48.534;-3.036;2023-03-23T05:25:00;16.90;63.60
75719;DHT22;64340;48.534;-3.036;2023-03-23T05:27:30;16.80;63.60
75719;DHT22;64340;48.534;-3.036;2023-03-23T05:29:56;16.90;63.60
75719;DHT22;64340;48.534;-3.036;2023-03-23T05:32:24;16.90;64.00
75719;DHT22;64340;48.534;-3.036;2023-03-23T05:35:00;16.90;63.70
75719;DHT22;64340;48.534;-3.036;2023-03-23T05:37:27;16.80;63.90
75719;DHT22;64340;48.534;-3.036;2023-03-23T05:40:02;16.80;63.80
75719;DHT22;64340;48.534;-3.036;2023-03-23T05:42:33;16.80;63.80
75719;DHT22;64340;48.534;-3.036;2023-03-23T05:45:00;16.80;63.80
75719;DHT22;64340;48.534;-3.036;2023-03-23T05:47:26;16.80;63.80
75719;DHT22;64340;48.534;-3.036;2023-03-23T05:49:52;16.80;63.80
75719;DHT22;64340;48.534;-3.036;2023-03-23T05:52:19;16.80;63.70
75719;DHT22;64340;48.534;-3.036;2023-03-23T05:54:45;16.80;63.70
75719;DHT22;64340;48.534;-3.036;2023-03-23T05:57:10;16.80;63.70
75719;DHT22;64340;48.534;-3.036;2023-03-23T05:59:36;16.80;63.70
75719;DHT22;64340;48.534;-3.036;2023-03-23T06:02:03;16.80;63.80
75719;DHT22;64340;48.534;-3.036;2023-03-23T06:04:31;16.80;63.90
75719;DHT22;64340;48.534;-3.036;2023-03-23T06:07:01;16.80;63.80
75719;DHT22;64340;48.534;-3.036;2023-03-23T06:09:27;16.80;63.80
75719;DHT22;64340;48.534;-3.036;2023-03-23T06:11:53;16.90;63.70
75719;DHT22;64340;48.534;-3.036;2023-03-23T06:14:19;16.80;63.60
75719;DHT22;64340;48.534;-3.036;2023-03-23T06:16:45;16.80;64.00
75719;DHT22;64340;48.534;-3.036;2023-03-23T06:19:11;16.80;63.90
75719;DHT22;64340;48.534;-3.036;2023-03-23T06:21:37;16.80;63.70
75719;DHT22;64340;48.534;-3.036;2023-03-23T06:24:03;16.80;63.80
75719;DHT22;64340;48.534;-3.036;2023-03-23T06:26:39;16.80;64.00
75719;DHT22;64340;48.534;-3.036;2023-03-23T06:29:06;16.80;64.20
75719;DHT22;64340;48.534;-3.036;2023-03-23T06:31:39;16.80;64.30
75719;DHT22;64340;48.534;-3.036;2023-03-23T06:34:05;16.80;64.20
75719;DHT22;64340;48.534;-3.036;2023-03-23T06:36:31;16.80;64.50
75719;DHT22;64340;48.534;-3.036;2023-03-23T06:38:57;16.80;64.30
75719;DHT22;64340;48.534;-3.036;2023-03-23T06:41:22;16.80;64.30
75719;DHT22;64340;48.534;-3.036;2023-03-23T06:43:48;16.80;64.60
75719;DHT22;64340;48.534;-3.036;2023-03-23T06:46:14;16.80;65.20
75719;DHT22;64340;48.534;-3.036;2023-03-23T06:48:40;16.90;65.10
75719;DHT22;64340;48.534;-3.036;2023-03-23T06:51:06;16.90;64.70
75719;DHT22;64340;48.534;-3.036;2023-03-23T06:53:32;16.90;64.90
75719;DHT22;64340;48.534;-3.036;2023-03-23T06:55:59;16.90;65.50
75719;DHT22;64340;48.534;-3.036;2023-03-23T06:58:24;16.90;66.80
75719;DHT22;64340;48.534;-3.036;2023-03-23T07:00:56;16.90;66.90
75719;DHT22;64340;48.534;-3.036;2023-03-23T07:03:24;16.90;67.60
75719;DHT22;64340;48.534;-3.036;2023-03-23T07:05:49;16.90;67.60
75719;DHT22;64340;48.534;-3.036;2023-03-23T07:08:16;16.90;67.20
75719;DHT22;64340;48.534;-3.036;2023-03-23T07:10:41;16.90;67.10
75719;DHT22;64340;48.534;-3.036;2023-03-23T07:13:07;16.90;66.80
75719;DHT22;64340;48.534;-3.036;2023-03-23T07:15:33;16.90;66.90
75719;DHT22;64340;48.534;-3.036;2023-03-23T07:17:59;16.90;66.80
75719;DHT22;64340;48.534;-3.036;2023-03-23T07:20:25;16.90;66.90
75719;DHT22;64340;48.534;-3.036;2023-03-23T07:22:51;16.90;66.60
75719;DHT22;64340;48.534;-3.036;2023-03-23T07:25:17;16.80;66.00
75719;DHT22;64340;48.534;-3.036;2023-03-23T07:27:45;16.70;66.30
75719;DHT22;64340;48.534;-3.036;2023-03-23T07:30:11;16.80;66.00
75719;DHT22;64340;48.534;-3.036;2023-03-23T07:32:37;16.90;65.70
75719;DHT22;64340;48.534;-3.036;2023-03-23T07:35:03;16.90;65.80
75719;DHT22;64340;48.534;-3.036;2023-03-23T07:37:29;16.90;66.10
75719;DHT22;64340;48.534;-3.036;2023-03-23T07:39:57;16.90;65.80
75719;DHT22;64340;48.534;-3.036;2023-03-23T07:42:23;16.90;66.10
75719;DHT22;64340;48.534;-3.036;2023-03-23T07:44:49;16.90;66.00
75719;DHT22;64340;48.534;-3.036;2023-03-23T07:47:15;16.90;66.00
75719;DHT22;64340;48.534;-3.036;2023-03-23T07:49:41;17.00;66.10
75719;DHT22;64340;48.534;-3.036;2023-03-23T07:52:06;17.00;65.10
75719;DHT22;64340;48.534;-3.036;2023-03-23T07:54:33;17.00;65.40
75719;DHT22;64340;48.534;-3.036;2023-03-23T07:56:58;17.00;65.40
75719;DHT22;64340;48.534;-3.036;2023-03-23T07:59:24;17.10;65.50
75719;DHT22;64340;48.534;-3.036;2023-03-23T08:01:50;17.20;65.50
75719;DHT22;64340;48.534;-3.036;2023-03-23T08:04:16;16.70;64.20
75719;DHT22;64340;48.534;-3.036;2023-03-23T08:06:41;16.60;65.40
75719;DHT22;64340;48.534;-3.036;2023-03-23T08:09:07;16.70;65.00
75719;DHT22;64340;48.534;-3.036;2023-03-23T08:11:37;16.80;64.80
75719;DHT22;64340;48.534;-3.036;2023-03-23T08:14:04;16.90;64.70
75719;DHT22;64340;48.534;-3.036;2023-03-23T08:16:31;16.90;64.80
75719;DHT22;64340;48.534;-3.036;2023-03-23T08:18:57;16.90;64.60
75719;DHT22;64340;48.534;-3.036;2023-03-23T08:21:23;16.80;64.70
75719;DHT22;64340;48.534;-3.036;2023-03-23T08:23:49;16.90;64.70
75719;DHT22;64340;48.534;-3.036;2023-03-23T08:26:15;16.90;64.70
75719;DHT22;64340;48.534;-3.036;2023-03-23T08:28:42;16.90;64.60
75719;DHT22;64340;48.534;-3.036;2023-03-23T08:31:11;16.90;65.50
75719;DHT22;64340;48.534;-3.036;2023-03-23T08:33:38;17.00;65.40
75719;DHT22;64340;48.534;-3.036;2023-03-23T08:36:04;17.00;64.70
75719;DHT22;64340;48.534;-3.036;2023-03-23T08:38:30;16.60;64.60
75719;DHT22;64340;48.534;-3.036;2023-03-23T08:41:00;16.50;64.70
75719;DHT22;64340;48.534;-3.036;2023-03-23T08:43:28;16.60;64.80
75719;DHT22;64340;48.534;-3.036;2023-03-23T08:45:54;16.70;64.80
75719;DHT22;64340;48.534;-3.036;2023-03-23T08:48:21;16.70;64.90
75719;DHT22;64340;48.534;-3.036;2023-03-23T08:50:49;16.80;66.20
75719;DHT22;64340;48.534;-3.036;2023-03-23T08:53:15;16.90;68.40
75719;DHT22;64340;48.534;-3.036;2023-03-23T08:55:41;16.90;67.30
75719;DHT22;64340;48.534;-3.036;2023-03-23T08:58:08;17.00;68.30
75719;DHT22;64340;48.534;-3.036;2023-03-23T09:00:35;17.00;67.90
75719;DHT22;64340;48.534;-3.036;2023-03-23T09:03:01;17.00;67.60
75719;DHT22;64340;48.534;-3.036;2023-03-23T09:05:28;17.00;67.40
75719;DHT22;64340;48.534;-3.036;2023-03-23T09:07:56;17.00;67.10
75719;DHT22;64340;48.534;-3.036;2023-03-23T09:10:26;17.00;66.90
75719;DHT22;64340;48.534;-3.036;2023-03-23T09:12:53;17.00;66.90
75719;DHT22;64340;48.534;-3.036;2023-03-23T09:15:19;17.00;66.70
75719;DHT22;64340;48.534;-3.036;2023-03-23T09:17:47;17.00;67.00
75719;DHT22;64340;48.534;-3.036;2023-03-23T09:20:16;17.00;67.10
75719;DHT22;64340;48.534;-3.036;2023-03-23T09:22:44;17.00;66.60
75719;DHT22;64340;48.534;-3.036;2023-03-23T09:25:12;17.00;66.80
75719;DHT22;64340;48.534;-3.036;2023-03-23T09:27:39;17.00;66.60
75719;DHT22;64340;48.534;-3.036;2023-03-23T09:30:10;17.00;66.50
75719;DHT22;64340;48.534;-3.036;2023-03-23T09:32:38;17.10;66.40
75719;DHT22;64340;48.534;-3.036;2023-03-23T09:35:06;17.10;66.00
75719;DHT22;64340;48.534;-3.036;2023-03-23T09:37:35;17.20;65.80
75719;DHT22;64340;48.534;-3.036;2023-03-23T09:40:02;17.20;65.60
75719;DHT22;64340;48.534;-3.036;2023-03-23T09:46:07;17.20;64.30
75719;DHT22;64340;48.534;-3.036;2023-03-23T09:48:56;17.10;64.70
75719;DHT22;64340;48.534;-3.036;2023-03-23T09:51:40;17.10;64.40
75719;DHT22;64340;48.534;-3.036;2023-03-23T09:54:19;17.00;64.10
75719;DHT22;64340;48.534;-3.036;2023-03-23T09:56:48;17.00;64.20
75719;DHT22;64340;48.534;-3.036;2023-03-23T10:01:52;17.10;64.20
75719;DHT22;64340;48.534;-3.036;2023-03-23T10:04:45;17.00;64.10
75719;DHT22;64340;48.534;-3.036;2023-03-23T10:07:14;17.00;64.00
75719;DHT22;64340;48.534;-3.036;2023-03-23T10:09:42;17.00;64.00
75719;DHT22;64340;48.534;-3.036;2023-03-23T10:25:46;17.20;63.20
75719;DHT22;64340;48.534;-3.036;2023-03-23T10:28:21;17.20;63.00
75719;DHT22;64340;48.534;-3.036;2023-03-23T10:30:54;17.30;63.00
75719;DHT22;64340;48.534;-3.036;2023-03-23T10:33:34;17.20;62.80
75719;DHT22;64340;48.534;-3.036;2023-03-23T10:36:31;17.30;63.20
75719;DHT22;64340;48.534;-3.036;2023-03-23T10:41:31;17.20;59.70
75719;DHT22;64340;48.534;-3.036;2023-03-23T10:43:57;17.20;60.60
75719;DHT22;64340;48.534;-3.036;2023-03-23T10:46:45;17.20;61.00
75719;DHT22;64340;48.534;-3.036;2023-03-23T10:49:23;17.20;60.60
75719;DHT22;64340;48.534;-3.036;2023-03-23T10:52:13;17.20;60.40
75719;DHT22;64340;48.534;-3.036;2023-03-23T10:57:33;17.10;59.00
75719;DHT22;64340;48.534;-3.036;2023-03-23T11:00:07;17.20;59.70
75719;DHT22;64340;48.534;-3.036;2023-03-23T11:02:44;17.30;60.20
75719;DHT22;64340;48.534;-3.036;2023-03-23T11:05:21;17.50;61.10
75719;DHT22;64340;48.534;-3.036;2023-03-23T11:07:54;17.50;61.40
75719;DHT22;64340;48.534;-3.036;2023-03-23T11:10:27;17.50;61.40
75719;DHT22;64340;48.534;-3.036;2023-03-23T11:13:01;17.60;62.00
75719;DHT22;64340;48.534;-3.036;2023-03-23T11:15:36;17.70;62.10
75719;DHT22;64340;48.534;-3.036;2023-03-23T11:18:11;17.70;62.40
75719;DHT22;64340;48.534;-3.036;2023-03-23T11:20:41;17.60;63.10
75719;DHT22;64340;48.534;-3.036;2023-03-23T11:23:22;17.60;63.50
75719;DHT22;64340;48.534;-3.036;2023-03-23T11:28:35;17.60;63.20
75719;DHT22;64340;48.534;-3.036;2023-03-23T11:31:05;17.50;63.50
75719;DHT22;64340;48.534;-3.036;2023-03-23T11:34:16;17.50;63.90
75719;DHT22;64340;48.534;-3.036;2023-03-23T11:36:48;17.50;64.10
75719;DHT22;64340;48.534;-3.036;2023-03-23T11:42:21;17.60;64.10
75719;DHT22;64340;48.534;-3.036;2023-03-23T11:44:47;17.60;64.10
75719;DHT22;64340;48.534;-3.036;2023-03-23T11:47:42;17.50;64.00
75719;DHT22;64340;48.534;-3.036;2023-03-23T11:50:31;17.50;64.40
75719;DHT22;64340;48.534;-3.036;2023-03-23T11:53:24;17.50;64.20
75719;DHT22;64340;48.534;-3.036;2023-03-23T11:58:40;17.60;64.10
75719;DHT22;64340;48.534;-3.036;2023-03-23T12:01:27;17.60;64.30
75719;DHT22;64340;48.534;-3.036;2023-03-23T12:04:33;17.70;64.30
75719;DHT22;64340;48.534;-3.036;2023-03-23T12:23:38;17.50;65.40
75719;DHT22;64340;48.534;-3.036;2023-03-23T12:26:12;17.50;65.40
75719;DHT22;64340;48.534;-3.036;2023-03-23T12:37:12;17.70;65.20
75719;DHT22;64340;48.534;-3.036;2023-03-23T12:48:24;18.00;65.30
75719;DHT22;64340;48.534;-3.036;2023-03-23T12:53:52;17.80;66.00
75719;DHT22;64340;48.534;-3.036;2023-03-23T12:56:34;17.80;66.20
75719;DHT22;64340;48.534;-3.036;2023-03-23T13:00:03;17.80;66.30
75719;DHT22;64340;48.534;-3.036;2023-03-23T13:02:22;17.80;66.30
75719;DHT22;64340;48.534;-3.036;2023-03-23T13:05:02;17.80;66.30
75719;DHT22;64340;48.534;-3.036;2023-03-23T13:07:35;17.80;66.40
75719;DHT22;64340;48.534;-3.036;2023-03-23T13:10:17;17.80;66.50
75719;DHT22;64340;48.534;-3.036;2023-03-23T13:12:46;17.80;66.40
75719;DHT22;64340;48.534;-3.036;2023-03-23T13:15:43;17.80;66.50
75719;DHT22;64340;48.534;-3.036;2023-03-23T13:18:32;17.80;66.50
75719;DHT22;64340;48.534;-3.036;2023-03-23T13:21:18;17.80;66.60
75719;DHT22;64340;48.534;-3.036;2023-03-23T13:26:43;17.80;66.80
75719;DHT22;64340;48.534;-3.036;2023-03-23T13:29:14;17.80;66.80
75719;DHT22;64340;48.534;-3.036;2023-03-23T13:31:43;17.80;66.90
75719;DHT22;64340;48.534;-3.036;2023-03-23T13:36:41;17.80;66.70
75719;DHT22;64340;48.534;-3.036;2023-03-23T13:39:22;17.80;66.60
75719;DHT22;64340;48.534;-3.036;2023-03-23T13:49:57;17.80;66.50
75719;DHT22;64340;48.534;-3.036;2023-03-23T13:57:56;17.70;64.40
75719;DHT22;64340;48.534;-3.036;2023-03-23T14:05:40;17.50;65.60
75719;DHT22;64340;48.534;-3.036;2023-03-23T14:08:11;17.50;65.90
75719;DHT22;64340;48.534;-3.036;2023-03-23T14:15:45;17.50;66.20
75719;DHT22;64340;48.534;-3.036;2023-03-23T14:18:19;17.50;66.10
75719;DHT22;64340;48.534;-3.036;2023-03-23T14:20:47;17.50;66.10
75719;DHT22;64340;48.534;-3.036;2023-03-23T14:23:18;17.50;66.00
75719;DHT22;64340;48.534;-3.036;2023-03-23T14:25:53;17.50;66.10
75719;DHT22;64340;48.534;-3.036;2023-03-23T14:28:21;17.50;66.10
75719;DHT22;64340;48.534;-3.036;2023-03-23T14:30:52;17.50;66.00
75719;DHT22;64340;48.534;-3.036;2023-03-23T14:33:19;17.50;66.00
75719;DHT22;64340;48.534;-3.036;2023-03-23T14:35:45;17.50;66.00
75719;DHT22;64340;48.534;-3.036;2023-03-23T14:38:21;17.50;65.90
75719;DHT22;64340;48.534;-3.036;2023-03-23T14:41:03;17.50;66.00
75719;DHT22;64340;48.534;-3.036;2023-03-23T14:43:30;17.50;66.00
75719;DHT22;64340;48.534;-3.036;2023-03-23T14:45:59;17.50;65.90
75719;DHT22;64340;48.534;-3.036;2023-03-23T14:48:26;17.50;65.90
75719;DHT22;64340;48.534;-3.036;2023-03-23T14:50:57;17.40;65.90
75719;DHT22;64340;48.534;-3.036;2023-03-23T14:53:37;17.40;65.90
75719;DHT22;64340;48.534;-3.036;2023-03-23T14:56:14;17.40;65.90
75719;DHT22;64340;48.534;-3.036;2023-03-23T14:58:45;17.40;65.80
75719;DHT22;64340;48.534;-3.036;2023-03-23T15:01:15;17.40;65.90
75719;DHT22;64340;48.534;-3.036;2023-03-23T15:03:55;17.40;65.80
75719;DHT22;64340;48.534;-3.036;2023-03-23T15:06:24;17.30;65.90
75719;DHT22;64340;48.534;-3.036;2023-03-23T15:08:54;17.40;65.90
75719;DHT22;64340;48.534;-3.036;2023-03-23T15:11:25;17.30;66.00
75719;DHT22;64340;48.534;-3.036;2023-03-23T15:13:55;17.30;66.10
75719;DHT22;64340;48.534;-3.036;2023-03-23T15:16:27;17.30;66.00
75719;DHT22;64340;48.534;-3.036;2023-03-23T15:18:59;17.30;66.00
75719;DHT22;64340;48.534;-3.036;2023-03-23T15:21:31;17.30;66.00
75719;DHT22;64340;48.534;-3.036;2023-03-23T15:23:58;17.30;66.00
75719;DHT22;64340;48.534;-3.036;2023-03-23T15:26:40;17.20;66.00
75719;DHT22;64340;48.534;-3.036;2023-03-23T15:31:56;17.20;65.90
75719;DHT22;64340;48.534;-3.036;2023-03-23T15:34:33;17.20;65.90
75719;DHT22;64340;48.534;-3.036;2023-03-23T15:37:02;17.20;65.90
75719;DHT22;64340;48.534;-3.036;2023-03-23T15:39:29;17.20;65.80
75719;DHT22;64340;48.534;-3.036;2023-03-23T15:41:56;17.20;65.80
75719;DHT22;64340;48.534;-3.036;2023-03-23T15:47:02;17.20;65.70
75719;DHT22;64340;48.534;-3.036;2023-03-23T15:49:28;17.20;65.70
75719;DHT22;64340;48.534;-3.036;2023-03-23T15:51:54;17.20;65.80
75719;DHT22;64340;48.534;-3.036;2023-03-23T15:54:20;17.20;65.80
75719;DHT22;64340;48.534;-3.036;2023-03-23T15:56:46;17.20;65.70
75719;DHT22;64340;48.534;-3.036;2023-03-23T15:59:12;17.20;65.70
75719;DHT22;64340;48.534;-3.036;2023-03-23T16:01:40;17.20;65.70
75719;DHT22;64340;48.534;-3.036;2023-03-23T16:04:14;17.20;65.70
75719;DHT22;64340;48.534;-3.036;2023-03-23T16:06:42;17.20;65.70
75719;DHT22;64340;48.534;-3.036;2023-03-23T16:09:13;17.10;65.80
75719;DHT22;64340;48.534;-3.036;2023-03-23T16:11:39;17.20;65.80
75719;DHT22;64340;48.534;-3.036;2023-03-23T16:14:06;17.10;65.70
75719;DHT22;64340;48.534;-3.036;2023-03-23T16:16:45;17.10;65.80
75719;DHT22;64340;48.534;-3.036;2023-03-23T16:19:12;17.20;65.90
75719;DHT22;64340;48.534;-3.036;2023-03-23T16:21:39;17.20;66.20
75719;DHT22;64340;48.534;-3.036;2023-03-23T16:24:06;17.20;66.10
75719;DHT22;64340;48.534;-3.036;2023-03-23T16:26:33;17.20;66.10
75719;DHT22;64340;48.534;-3.036;2023-03-23T16:28:58;17.20;65.90
75719;DHT22;64340;48.534;-3.036;2023-03-23T16:31:25;16.90;66.70
75719;DHT22;64340;48.534;-3.036;2023-03-23T16:33:51;16.70;67.50
75719;DHT22;64340;48.534;-3.036;2023-03-23T16:36:16;16.60;67.60
75719;DHT22;64340;48.534;-3.036;2023-03-23T16:38:42;16.50;68.30
75719;DHT22;64340;48.534;-3.036;2023-03-23T16:41:08;16.50;68.50
75719;DHT22;64340;48.534;-3.036;2023-03-23T16:43:34;16.40;68.70
75719;DHT22;64340;48.534;-3.036;2023-03-23T16:46:02;16.50;68.80
75719;DHT22;64340;48.534;-3.036;2023-03-23T16:48:28;16.50;69.10
75719;DHT22;64340;48.534;-3.036;2023-03-23T16:50:55;16.80;69.00
75719;DHT22;64340;48.534;-3.036;2023-03-23T16:53:22;17.00;68.70
75719;DHT22;64340;48.534;-3.036;2023-03-23T16:55:51;17.10;68.30
75719;DHT22;64340;48.534;-3.036;2023-03-23T16:58:17;17.20;68.30
75719;DHT22;64340;48.534;-3.036;2023-03-23T17:00:50;17.40;68.20
75719;DHT22;64340;48.534;-3.036;2023-03-23T17:03:18;17.50;68.20
75719;DHT22;64340;48.534;-3.036;2023-03-23T17:05:44;17.60;67.60
75719;DHT22;64340;48.534;-3.036;2023-03-23T17:08:11;17.60;67.60
75719;DHT22;64340;48.534;-3.036;2023-03-23T17:10:38;17.80;67.10
75719;DHT22;64340;48.534;-3.036;2023-03-23T17:13:04;17.80;67.10
75719;DHT22;64340;48.534;-3.036;2023-03-23T17:15:30;17.80;67.00
75719;DHT22;64340;48.534;-3.036;2023-03-23T17:17:56;17.90;67.00
75719;DHT22;64340;48.534;-3.036;2023-03-23T17:20:22;18.00;66.80
75719;DHT22;64340;48.534;-3.036;2023-03-23T17:22:48;18.00;66.80
75719;DHT22;64340;48.534;-3.036;2023-03-23T17:25:14;18.00;66.60
75719;DHT22;64340;48.534;-3.036;2023-03-23T17:27:40;18.00;66.50
75719;DHT22;64340;48.534;-3.036;2023-03-23T17:30:08;18.10;66.50
75719;DHT22;64340;48.534;-3.036;2023-03-23T17:32:34;18.10;66.20
75719;DHT22;64340;48.534;-3.036;2023-03-23T17:35:01;18.20;66.30